首页
METAR-TAF:

METAR-TAF

机场 :

羅夫諾, 乌克兰

纬度: 50-35N, 经度: 026-08E, 海拔: 231米

当前天气观测

该预报发布于2小时和52分钟前的15:00 UTC
风速8节,风向北转东北
温度 17°C
湿度 63%
气压 1002 hPa
能见度10公里或以上
散云层高于3300英尺

METAR: UKLR 041500Z 02004MPS 9999 SCT033 17/10 Q1002 NOSIG

时间: 20:52 (17:52 UTC)

预报

该预报发布于6小时和44分钟前的11:08 UTC
预报有效从04日的 12点(UTC)到 04日的 21点(UTC)
风速10节,风向西南,有时为19节阵风
能见度10公里或以上
多云层高于2000英尺
散云层高于2300英尺, 积雨云.
短暂存在
从 04日的 12点(UTC)到 04日的 17点(UTC)
风速19节,风向多变,有时为35节阵风
能見度: 2100
多云层高于700英尺
多云层高于1300英尺, 积雨云.
雷暴, 小雨, 飑
成为
从 04日的 17点(UTC)到 04日的 18点(UTC)
风速6节,风向南转西南
能見度: 5000
轻雾

TAF: UKLR 041108Z 0412/0421 22005G10MPS 9999 BKN020 SCT023CB TEMPO 0412/0417 VRB10G18MPS 2100 -TSRA SQ BKN007 BKN013CB BECMG 0417/0418 20003MPS 5000 BR

超过4000个机场的气象观测和天气预报(METAR&TAF报告)。

可查询的气象台以黄色和红色小点在地图上表示。

将鼠标移到小点上方,可查看气象台名称。

然后点击查看天气观测和预报。

如需切换地图:点击带黑十字的绿色按钮放大地图;点击带横线的绿色按钮缩小地图;或者点击绿色箭头查看邻近地区的地图。


METAR-TAF: